createdAt,value
2018-07-30T00:00:26.427Z,46.82
2018-07-30T00:01:26.432Z,47.89
2018-07-30T00:02:26.442Z,48.08
2018-07-30T00:03:26.454Z,47.98
2018-07-30T00:04:26.458Z,48.27
2018-07-30T00:05:26.478Z,47.98
2018-07-30T00:06:26.475Z,47.79
2018-07-30T00:07:26.476Z,49.15
2018-07-30T00:08:26.481Z,49.92
2018-07-30T00:09:26.504Z,50.12
2018-07-30T00:10:26.498Z,49.73
2018-07-30T00:11:26.515Z,49.44
2018-07-30T00:12:26.524Z,49.24
2018-07-30T00:13:26.523Z,48.85
2018-07-30T00:14:26.536Z,48.95
2018-07-30T00:15:26.538Z,48.95
2018-07-30T00:16:26.549Z,49.54
2018-07-30T00:17:26.558Z,49.44
2018-07-30T00:18:26.561Z,49.15
2018-07-30T00:19:26.580Z,49.15
2018-07-30T00:20:26.585Z,48.85
2018-07-30T00:21:26.629Z,49.02
2018-07-30T00:22:26.597Z,49.12
2018-07-30T00:23:26.620Z,48.66
2018-07-30T00:24:26.630Z,48.83
2018-07-30T00:25:26.622Z,49.05
2018-07-30T00:26:26.667Z,48.44
2018-07-30T00:27:26.644Z,48.25
2018-07-30T00:28:26.655Z,48.54
2018-07-30T00:29:26.662Z,49.05
2018-07-30T00:30:26.666Z,49.73
2018-07-30T00:31:26.745Z,49.82
2018-07-30T00:32:26.700Z,49.44
2018-07-30T00:33:26.694Z,49.44
2018-07-30T00:34:26.696Z,49.73
2018-07-30T00:35:26.733Z,49.34
2018-07-30T00:36:26.720Z,49.44
2018-07-30T00:37:26.742Z,49.82
2018-07-30T00:38:26.736Z,49.82
2018-07-30T00:39:26.734Z,50.41
2018-07-30T00:40:26.751Z,50.31
2018-07-30T00:41:26.747Z,51.28
2018-07-30T00:42:26.766Z,50.70
2018-07-30T00:43:26.763Z,50.57
2018-07-30T00:44:26.774Z,50.60
2018-07-30T00:45:26.788Z,50.38
2018-07-30T00:46:26.796Z,50.57
2018-07-30T00:47:26.793Z,50.96
2018-07-30T00:48:26.811Z,50.96
2018-07-30T00:49:26.818Z,50.29
2018-07-30T00:50:26.824Z,50.09
2018-07-30T00:51:26.855Z,50.50
2018-07-30T00:52:26.863Z,50.48
2018-07-30T00:53:26.849Z,50.96
2018-07-30T00:54:26.858Z,50.96
2018-07-30T00:55:26.868Z,50.48
2018-07-30T00:56:26.873Z,50.57
2018-07-30T00:57:26.877Z,50.48
2018-07-30T00:58:26.885Z,50.38
2018-07-30T00:59:26.907Z,50.48
2018-07-30T01:00:26.901Z,51.54
2018-07-30T01:01:26.917Z,51.45
2018-07-30T01:02:26.919Z,51.93
2018-07-30T01:03:26.928Z,51.64
2018-07-30T01:04:26.936Z,51.25
2018-07-30T01:05:26.949Z,52.42
2018-07-30T01:06:26.947Z,52.03
2018-07-30T01:07:26.957Z,52.51
2018-07-30T01:08:26.973Z,52.71
2018-07-30T01:09:26.982Z,52.61
2018-07-30T01:10:26.985Z,53.39
2018-07-30T01:11:26.985Z,53.00
2018-07-30T01:12:27.005Z,52.61
2018-07-30T01:13:27.007Z,52.51
2018-07-30T01:14:27.103Z,52.61
2018-07-30T01:15:27.028Z,52.12
2018-07-30T01:16:27.036Z,52.51
2018-07-30T01:17:27.069Z,52.22
2018-07-30T01:18:27.047Z,52.51
2018-07-30T01:19:27.055Z,52.61
2018-07-30T01:20:27.064Z,51.54
2018-07-30T01:21:27.071Z,51.74
2018-07-30T01:22:27.084Z,51.84
2018-07-30T01:23:27.085Z,51.81
2018-07-30T01:24:27.094Z,52.51
2018-07-30T01:25:27.097Z,51.84
2018-07-30T01:26:27.108Z,52.61
2018-07-30T01:27:27.121Z,53.09
2018-07-30T01:28:27.123Z,53.67
2018-07-30T01:29:27.132Z,53.58
2018-07-30T01:30:27.145Z,53.09
2018-07-30T01:31:27.152Z,52.90
2018-07-30T01:32:27.166Z,53.39
2018-07-30T01:33:27.168Z,53.29
2018-07-30T01:34:27.177Z,53.87
2018-07-30T01:35:27.752Z,54.35
2018-07-30T01:36:27.186Z,53.87
2018-07-30T01:37:27.193Z,53.67
2018-07-30T01:38:27.199Z,53.97
2018-07-30T01:39:27.219Z,53.67
2018-07-30T01:40:27.226Z,53.39
2018-07-30T01:41:27.224Z,53.87
2018-07-30T01:42:27.233Z,53.39
2018-07-30T01:43:27.247Z,53.29
2018-07-30T01:44:27.247Z,52.71
2018-07-30T01:45:27.264Z,53.67
2018-07-30T01:46:27.265Z,53.67
2018-07-30T01:47:27.278Z,53.58
2018-07-30T01:48:27.295Z,53.58
2018-07-30T01:49:27.293Z,53.77
2018-07-30T01:50:27.303Z,53.39
2018-07-30T01:51:27.299Z,54.45
2018-07-30T01:52:27.309Z,53.97
2018-07-30T01:53:27.328Z,53.29
2018-07-30T01:54:27.332Z,52.71
2018-07-30T01:55:27.419Z,53.67
2018-07-30T01:56:27.347Z,53.09
2018-07-30T01:57:27.358Z,54.45
2018-07-30T01:58:27.358Z,53.97
2018-07-30T01:59:27.373Z,53.49
2018-07-30T02:00:27.379Z,52.71
2018-07-30T02:01:27.385Z,52.71
2018-07-30T02:02:27.400Z,52.68
2018-07-30T02:03:27.401Z,52.71
2018-07-30T02:04:28.257Z,53.58
2018-07-30T02:05:27.422Z,53.67
2018-07-30T02:06:27.428Z,52.71
2018-07-30T02:07:27.430Z,52.80
2018-07-30T02:08:27.438Z,53.19
2018-07-30T02:09:27.445Z,53.67
2018-07-30T02:10:27.465Z,53.39
2018-07-30T02:11:27.472Z,53.29
2018-07-30T02:12:27.475Z,53.77
2018-07-30T02:13:27.494Z,53.49
2018-07-30T02:14:27.490Z,53.39
2018-07-30T02:15:27.496Z,52.90
2018-07-30T02:16:27.511Z,53.58
2018-07-30T02:17:27.506Z,53.97
2018-07-30T02:18:27.520Z,54.52
2018-07-30T02:19:27.524Z,54.13
2018-07-30T02:20:27.548Z,54.43
2018-07-30T02:21:27.596Z,53.65
2018-07-30T02:22:27.552Z,54.91
2018-07-30T02:23:27.558Z,55.20
2018-07-30T02:24:27.581Z,55.30
2018-07-30T02:25:27.574Z,55.10
2018-07-30T02:26:27.590Z,55.30
2018-07-30T02:27:27.598Z,55.20
2018-07-30T02:28:27.597Z,55.00
2018-07-30T02:29:27.613Z,55.58
2018-07-30T02:30:27.619Z,55.49
2018-07-30T02:31:27.625Z,55.58
2018-07-30T02:32:27.632Z,55.10
2018-07-30T02:33:28.281Z,54.81
2018-07-30T02:34:27.642Z,54.52
2018-07-30T02:35:27.665Z,54.52
2018-07-30T02:36:27.667Z,54.23
2018-07-30T02:37:27.664Z,55.10
2018-07-30T02:38:27.676Z,54.91
2018-07-30T02:39:27.687Z,54.91
2018-07-30T02:40:27.686Z,55.10
2018-07-30T02:41:27.694Z,55.10
2018-07-30T02:42:27.701Z,54.33
2018-07-30T02:43:27.718Z,54.33
2018-07-30T02:44:27.724Z,54.03
2018-07-30T02:45:27.733Z,54.81
2018-07-30T02:46:27.737Z,55.00
2018-07-30T02:47:27.746Z,55.00
2018-07-30T02:48:27.750Z,54.62
2018-07-30T02:49:27.757Z,55.00
2018-07-30T02:50:27.771Z,55.30
2018-07-30T02:51:27.771Z,55.46
2018-07-30T02:52:27.789Z,55.58
2018-07-30T02:53:28.773Z,55.58
2018-07-30T02:54:27.791Z,55.27
2018-07-30T02:55:27.799Z,55.17
2018-07-30T02:56:27.810Z,54.88
2018-07-30T02:57:27.821Z,55.07
2018-07-30T02:58:27.833Z,54.98
2018-07-30T02:59:27.833Z,54.98
2018-07-30T03:00:27.835Z,54.88
2018-07-30T03:01:27.856Z,55.27
2018-07-30T03:02:27.858Z,55.66
2018-07-30T03:03:27.872Z,54.88
2018-07-30T03:04:27.875Z,54.88
2018-07-30T03:05:27.875Z,54.59
2018-07-30T03:06:27.882Z,53.63
2018-07-30T03:07:27.895Z,54.39
2018-07-30T03:08:27.907Z,54.01
2018-07-30T03:09:27.977Z,54.01
2018-07-30T03:10:27.910Z,53.63
2018-07-30T03:11:27.921Z,53.14
2018-07-30T03:12:27.929Z,53.33
2018-07-30T03:13:27.933Z,54.01
2018-07-30T03:14:27.948Z,54.59
2018-07-30T03:15:27.949Z,53.91
2018-07-30T03:16:27.962Z,53.33
2018-07-30T03:17:27.972Z,53.43
2018-07-30T03:18:27.980Z,53.53
2018-07-30T03:19:27.984Z,54.01
2018-07-30T03:20:27.995Z,53.81
2018-07-30T03:21:28.004Z,54.30
2018-07-30T03:22:28.010Z,54.21
2018-07-30T03:23:28.027Z,54.69
2018-07-30T03:24:28.784Z,54.39
2018-07-30T03:25:28.034Z,54.39
2018-07-30T03:26:28.046Z,54.21
2018-07-30T03:27:28.040Z,54.88
2018-07-30T03:28:28.072Z,55.17
2018-07-30T03:29:28.053Z,54.39
2018-07-30T03:30:28.067Z,53.81
2018-07-30T03:31:28.070Z,53.53
2018-07-30T03:32:28.084Z,55.07
2018-07-30T03:33:28.086Z,53.81
2018-07-30T03:34:28.104Z,53.53
2018-07-30T03:35:28.792Z,53.43
2018-07-30T03:36:28.118Z,54.01
2018-07-30T03:37:28.116Z,53.43
2018-07-30T03:38:28.120Z,53.63
2018-07-30T03:39:28.136Z,53.04
2018-07-30T03:40:28.137Z,54.49
2018-07-30T03:41:28.147Z,55.07
2018-07-30T03:42:28.156Z,53.72
2018-07-30T03:43:28.185Z,53.72
2018-07-30T03:44:28.327Z,53.99
2018-07-30T03:45:28.399Z,54.59
2018-07-30T03:46:28.176Z,54.17
2018-07-30T03:47:28.198Z,53.79
2018-07-30T03:48:28.191Z,52.75
2018-07-30T03:49:28.206Z,53.50
2018-07-30T03:50:28.216Z,53.02
2018-07-30T03:51:28.220Z,53.81
2018-07-30T03:52:28.228Z,53.72
2018-07-30T03:53:28.228Z,53.63
2018-07-30T03:54:28.239Z,54.95
2018-07-30T03:55:28.250Z,54.95
2018-07-30T03:56:28.260Z,55.24
2018-07-30T03:57:28.265Z,54.95
2018-07-30T03:58:28.270Z,55.24
2018-07-30T03:59:28.276Z,55.24
2018-07-30T04:00:28.392Z,55.43
2018-07-30T04:01:28.285Z,55.43
2018-07-30T04:02:28.302Z,55.24
2018-07-30T04:03:28.298Z,55.05
2018-07-30T04:04:28.313Z,55.24
2018-07-30T04:05:28.313Z,55.15
2018-07-30T04:06:28.371Z,55.63
2018-07-30T04:07:28.330Z,55.24
2018-07-30T04:08:28.341Z,55.34
2018-07-30T04:09:28.345Z,55.15
2018-07-30T04:10:28.389Z,54.88
2018-07-30T04:11:28.358Z,55.17
2018-07-30T04:12:28.370Z,55.66
2018-07-30T04:13:28.373Z,55.56
2018-07-30T04:14:29.309Z,55.27
2018-07-30T04:15:28.389Z,54.88
2018-07-30T04:16:28.406Z,55.07
2018-07-30T04:17:28.407Z,54.98
2018-07-30T04:18:28.413Z,55.36
2018-07-30T04:19:28.417Z,55.66
2018-07-30T04:20:28.430Z,55.27
2018-07-30T04:21:28.434Z,55.10
2018-07-30T04:22:28.445Z,54.55
2018-07-30T04:23:28.448Z,53.97
2018-07-30T04:24:28.460Z,53.97
2018-07-30T04:25:28.458Z,54.13
2018-07-30T04:26:28.472Z,55.22
2018-07-30T04:27:28.483Z,55.30
2018-07-30T04:28:28.500Z,55.40
2018-07-30T04:29:28.559Z,55.20
2018-07-30T04:30:28.497Z,55.30
2018-07-30T04:31:28.512Z,55.00
2018-07-30T04:32:28.512Z,55.40
2018-07-30T04:33:28.529Z,55.20
2018-07-30T04:34:28.536Z,55.40
2018-07-30T04:35:28.536Z,55.68
2018-07-30T04:36:28.542Z,55.68
2018-07-30T04:37:28.556Z,55.40
2018-07-30T04:38:28.564Z,55.40
2018-07-30T04:39:28.564Z,55.40
2018-07-30T04:40:28.576Z,55.10
2018-07-30T04:41:28.581Z,54.91
2018-07-30T04:42:28.584Z,54.81
2018-07-30T04:43:28.603Z,55.42
2018-07-30T04:44:28.610Z,55.32
2018-07-30T04:45:28.607Z,55.71
2018-07-30T04:46:28.627Z,55.62
2018-07-30T04:47:28.621Z,55.58
2018-07-30T04:48:28.632Z,55.52
2018-07-30T04:49:28.653Z,55.22
2018-07-30T04:50:28.645Z,55.13
2018-07-30T04:51:28.667Z,54.74
2018-07-30T04:52:28.661Z,54.06
2018-07-30T04:53:28.684Z,54.35
2018-07-30T04:54:28.683Z,54.64
2018-07-30T04:55:28.694Z,55.04
2018-07-30T04:56:28.719Z,54.45
2018-07-30T04:57:28.700Z,54.45
2018-07-30T04:58:28.716Z,54.26
2018-07-30T04:59:28.723Z,54.26
2018-07-30T05:00:28.725Z,54.55
2018-07-30T05:01:28.743Z,55.13
2018-07-30T05:02:28.744Z,54.64
2018-07-30T05:03:28.756Z,55.52
2018-07-30T05:04:28.762Z,56.49
2018-07-30T05:05:28.773Z,56.68
2018-07-30T05:06:28.783Z,56.87
2018-07-30T05:07:28.793Z,55.71
2018-07-30T05:08:28.799Z,55.22
2018-07-30T05:09:28.801Z,55.22
2018-07-30T05:10:28.811Z,55.04
2018-07-30T05:11:28.810Z,55.32
2018-07-30T05:12:28.830Z,55.22
2018-07-30T05:13:28.830Z,55.13
2018-07-30T05:14:28.834Z,55.13
2018-07-30T05:15:28.848Z,55.42
2018-07-30T05:16:28.856Z,55.64
2018-07-30T05:17:28.856Z,55.26
2018-07-30T05:18:28.871Z,54.50
2018-07-30T05:19:28.991Z,53.44
2018-07-30T05:20:28.887Z,53.56
2018-07-30T05:21:28.901Z,53.56
2018-07-30T05:22:28.897Z,53.08
2018-07-30T05:23:28.912Z,52.40
2018-07-30T05:24:28.918Z,52.40
2018-07-30T05:25:28.944Z,52.01
2018-07-30T05:26:28.935Z,51.81
2018-07-30T05:27:28.942Z,51.81
2018-07-30T05:28:28.971Z,51.62
2018-07-30T05:29:28.959Z,52.78
2018-07-30T05:30:28.963Z,53.27
2018-07-30T05:31:28.989Z,52.30
2018-07-30T05:32:28.979Z,52.88
2018-07-30T05:33:29.000Z,52.86
2018-07-30T05:34:28.998Z,52.37
2018-07-30T05:35:29.009Z,52.30
2018-07-30T05:36:29.027Z,51.81
2018-07-30T05:37:29.026Z,51.81
2018-07-30T05:38:29.848Z,51.65
2018-07-30T05:39:29.044Z,48.34
2018-07-30T05:40:29.052Z,45.61
2018-07-30T05:41:29.066Z,43.32
2018-07-30T05:42:29.066Z,43.49
2018-07-30T05:43:29.075Z,43.76
2018-07-30T05:44:29.103Z,42.75
2018-07-30T05:45:29.094Z,42.14
2018-07-30T05:46:29.101Z,42.46
2018-07-30T05:47:29.113Z,41.42
2018-07-30T05:48:29.122Z,39.82
2018-07-30T05:49:29.132Z,38.20
2018-07-30T05:50:29.145Z,39.02
2018-07-30T05:51:29.149Z,39.61
2018-07-30T05:52:29.164Z,39.80
2018-07-30T05:53:29.173Z,39.61
2018-07-30T05:54:29.186Z,38.10
2018-07-30T05:55:29.203Z,36.58
2018-07-30T05:56:29.206Z,35.72
2018-07-30T05:57:29.213Z,35.14
2018-07-30T05:58:29.224Z,33.80
2018-07-30T05:59:29.279Z,33.33
2018-07-30T06:00:29.294Z,32.57
2018-07-30T06:01:29.260Z,31.72
2018-07-30T06:02:29.280Z,31.54
2018-07-30T06:03:29.284Z,30.86
2018-07-30T06:04:29.315Z,30.16
2018-07-30T06:05:29.379Z,31.95
2018-07-30T06:06:29.332Z,34.34
2018-07-30T06:07:29.340Z,35.76
2018-07-30T06:08:29.355Z,37.21
2018-07-30T06:09:29.404Z,36.35
2018-07-30T06:10:29.404Z,36.35
2018-07-30T06:11:29.396Z,36.82
2018-07-30T06:12:29.411Z,36.30
2018-07-30T06:13:29.428Z,34.59
2018-07-30T06:14:29.437Z,32.77
2018-07-30T06:15:29.452Z,31.62
2018-07-30T06:16:29.465Z,30.86
2018-07-30T06:17:29.473Z,30.29
2018-07-30T06:18:29.491Z,30.51
2018-07-30T06:19:29.508Z,29.07
2018-07-30T06:20:29.514Z,28.39
2018-07-30T06:21:29.537Z,28.11
2018-07-30T06:22:29.549Z,27.90
2018-07-30T06:23:29.560Z,28.34
2018-07-30T06:24:29.600Z,29.96
2018-07-30T06:25:29.601Z,32.28
2018-07-30T06:26:30.422Z,33.70
2018-07-30T06:27:29.689Z,34.85
2018-07-30T06:28:29.640Z,35.36
2018-07-30T06:29:29.656Z,35.00
2018-07-30T06:30:29.691Z,34.31
2018-07-30T06:31:29.690Z,35.93
2018-07-30T06:32:29.700Z,35.57
2018-07-30T06:33:29.708Z,34.05
2018-07-30T06:34:29.724Z,33.00
2018-07-30T06:35:29.746Z,32.16
2018-07-30T06:36:29.786Z,30.33
2018-07-30T06:37:29.772Z,29.57
2018-07-30T06:38:29.845Z,29.37
2018-07-30T06:39:29.812Z,28.99
2018-07-30T06:40:29.815Z,29.30
2018-07-30T06:41:29.835Z,28.52
2018-07-30T06:42:29.850Z,27.94
2018-07-30T06:43:29.862Z,27.08
2018-07-30T06:44:29.885Z,26.89
2018-07-30T06:45:29.910Z,26.70
2018-07-30T06:46:29.920Z,26.89
2018-07-30T06:47:29.930Z,26.50
2018-07-30T06:48:29.955Z,26.50
2018-07-30T06:49:29.964Z,26.29
2018-07-30T06:50:29.990Z,26.89
2018-07-30T06:51:30.003Z,26.62
2018-07-30T06:52:30.018Z,26.22
2018-07-30T06:53:30.041Z,25.95
2018-07-30T06:54:30.056Z,25.36
2018-07-30T06:55:30.083Z,25.48
2018-07-30T06:56:30.096Z,24.98
2018-07-30T06:57:30.113Z,24.77
2018-07-30T06:58:30.132Z,24.70
2018-07-30T06:59:30.151Z,24.10
2018-07-30T07:00:30.182Z,24.02
2018-07-30T07:01:30.195Z,23.83
2018-07-30T07:02:30.206Z,23.64
2018-07-30T07:03:30.232Z,23.35
2018-07-30T07:04:30.260Z,23.07
2018-07-30T07:05:30.267Z,22.95
2018-07-30T07:06:30.294Z,22.56
2018-07-30T07:07:30.309Z,22.66
2018-07-30T07:08:30.332Z,22.75
2018-07-30T07:09:30.354Z,24.20
2018-07-30T07:10:30.373Z,24.87
2018-07-30T07:11:30.412Z,25.45
2018-07-30T07:12:30.417Z,25.24
2018-07-30T07:13:30.442Z,24.38
2018-07-30T07:14:30.464Z,24.20
2018-07-30T07:15:30.478Z,23.72
2018-07-30T07:16:30.510Z,23.84
2018-07-30T07:17:30.528Z,23.35
2018-07-30T07:18:30.577Z,22.85
2018-07-30T07:19:30.560Z,22.36
2018-07-30T07:20:30.588Z,22.17
2018-07-30T07:21:30.655Z,22.46
2018-07-30T07:22:30.630Z,21.97
2018-07-30T07:23:30.655Z,22.05
2018-07-30T07:24:30.677Z,22.85
2018-07-30T07:25:30.688Z,22.55
2018-07-30T07:26:30.719Z,22.94
2018-07-30T07:27:30.739Z,23.33
2018-07-30T07:28:30.757Z,22.83
2018-07-30T07:29:30.788Z,23.22
2018-07-30T07:30:30.807Z,23.53
2018-07-30T07:31:30.826Z,23.14
2018-07-30T07:32:30.849Z,22.64
2018-07-30T07:33:30.875Z,22.74
2018-07-30T07:34:30.891Z,22.84
2018-07-30T07:35:30.921Z,21.85
2018-07-30T07:36:30.943Z,21.58
2018-07-30T07:37:30.960Z,21.09
2018-07-30T07:38:30.984Z,20.70
2018-07-30T07:39:31.008Z,20.70
2018-07-30T07:40:31.031Z,20.31
2018-07-30T07:41:31.057Z,20.23
2018-07-30T07:42:31.085Z,20.42
2018-07-30T07:43:31.101Z,20.53
2018-07-30T07:44:31.120Z,20.61
2018-07-30T07:45:31.159Z,20.40
2018-07-30T07:46:31.170Z,19.90
2018-07-30T07:47:31.196Z,20.40
2018-07-30T07:48:31.220Z,20.61
2018-07-30T07:49:31.238Z,20.10
2018-07-30T07:50:31.318Z,20.01
2018-07-30T07:51:31.286Z,20.40
2018-07-30T07:52:31.314Z,20.68
2018-07-30T07:53:31.336Z,20.78
2018-07-30T07:54:31.358Z,20.57
2018-07-30T07:55:31.387Z,20.98
2018-07-30T07:56:31.413Z,20.70
2018-07-30T07:57:31.446Z,20.20
2018-07-30T07:58:31.462Z,19.90
2018-07-30T07:59:31.481Z,19.62
2018-07-30T08:00:31.505Z,19.32
2018-07-30T08:01:31.525Z,18.52
2018-07-30T08:02:31.553Z,18.33
2018-07-30T08:03:31.582Z,18.81
2018-07-30T08:04:31.604Z,19.12
2018-07-30T08:05:31.624Z,18.91
2018-07-30T08:06:31.651Z,19.10
2018-07-30T08:07:31.672Z,18.90
2018-07-30T08:08:31.698Z,19.31
2018-07-30T08:09:31.741Z,18.90
2018-07-30T08:10:31.742Z,19.10
2018-07-30T08:11:31.775Z,18.62
2018-07-30T08:12:31.807Z,18.90
2018-07-30T08:13:31.817Z,19.38
2018-07-30T08:14:31.847Z,20.36
2018-07-30T08:15:31.876Z,20.35
2018-07-30T08:16:31.893Z,20.73
2018-07-30T08:17:31.929Z,21.44
2018-07-30T08:18:31.944Z,21.03
2018-07-30T08:19:31.968Z,21.81
2018-07-30T08:20:31.990Z,22.29
2018-07-30T08:21:32.023Z,21.90
2018-07-30T08:22:32.041Z,21.44
2018-07-30T08:23:32.062Z,20.94
2018-07-30T08:24:32.091Z,20.65
2018-07-30T08:25:32.109Z,20.07
2018-07-30T08:26:32.131Z,21.14
2018-07-30T08:27:32.161Z,21.59
2018-07-30T08:28:32.181Z,21.97
2018-07-30T08:29:32.207Z,22.55
2018-07-30T08:30:32.236Z,23.04
2018-07-30T08:31:32.247Z,21.89
2018-07-30T08:32:32.279Z,21.51
2018-07-30T08:33:32.297Z,20.64
2018-07-30T08:34:32.314Z,20.57
2018-07-30T08:35:32.342Z,20.54
2018-07-30T08:36:32.369Z,20.92
2018-07-30T08:37:32.389Z,21.00
2018-07-30T08:38:32.416Z,20.72
2018-07-30T08:39:32.433Z,21.00
2018-07-30T08:40:32.468Z,22.34
2018-07-30T08:41:32.478Z,23.52
2018-07-30T08:42:32.499Z,23.24
2018-07-30T08:43:32.531Z,22.77
2018-07-30T08:44:32.549Z,23.34
2018-07-30T08:45:32.566Z,23.01
2018-07-30T08:46:32.609Z,23.67
2018-07-30T08:47:32.624Z,23.96
2018-07-30T08:48:32.640Z,24.26
2018-07-30T08:49:32.668Z,23.96
2018-07-30T08:50:32.690Z,24.25
2018-07-30T08:51:32.701Z,24.85
2018-07-30T08:52:32.735Z,24.56
2018-07-30T08:53:32.750Z,24.84
2018-07-30T08:54:32.774Z,25.04
2018-07-30T08:55:32.785Z,24.65
2018-07-30T08:56:32.814Z,24.84
2018-07-30T08:57:32.827Z,24.07
2018-07-30T08:58:32.847Z,24.07
2018-07-30T08:59:32.875Z,23.96
2018-07-30T09:00:32.894Z,23.02
2018-07-30T09:01:32.920Z,22.73
2018-07-30T09:02:32.936Z,22.81
2018-07-30T09:03:32.955Z,22.33
2018-07-30T09:04:33.905Z,22.03
2018-07-30T09:05:32.996Z,22.78
2018-07-30T09:06:33.021Z,23.16
2018-07-30T09:07:33.033Z,23.18
2018-07-30T09:08:33.068Z,23.26
2018-07-30T09:09:33.077Z,23.84
2018-07-30T09:10:33.109Z,24.03
2018-07-30T09:11:33.115Z,24.43
2018-07-30T09:12:33.185Z,23.46
2018-07-30T09:13:33.160Z,22.78
2018-07-30T09:14:33.181Z,22.97
2018-07-30T09:15:33.214Z,23.18
2018-07-30T09:16:33.227Z,23.18
2018-07-30T09:17:33.246Z,22.80
2018-07-30T09:18:33.266Z,22.78
2018-07-30T09:19:33.282Z,23.91
2018-07-30T09:20:33.307Z,24.67
2018-07-30T09:21:33.321Z,25.26
2018-07-30T09:22:33.349Z,25.28
2018-07-30T09:23:33.376Z,25.18
2018-07-30T09:24:33.388Z,24.97
2018-07-30T09:25:33.405Z,25.27
2018-07-30T09:26:33.423Z,25.16
2018-07-30T09:27:33.446Z,25.84
2018-07-30T09:28:33.466Z,25.84
2018-07-30T09:29:33.480Z,25.18
2018-07-30T09:30:33.500Z,24.58
2018-07-30T09:31:33.522Z,24.68
2018-07-30T09:32:33.553Z,25.48
2018-07-30T09:33:33.564Z,24.98
2018-07-30T09:34:33.583Z,24.99
2018-07-30T09:35:33.596Z,24.62
2018-07-30T09:36:33.622Z,23.94
2018-07-30T09:37:33.635Z,23.16
2018-07-30T09:38:33.657Z,23.18
2018-07-30T09:39:33.748Z,23.18
2018-07-30T09:40:33.797Z,22.49
2018-07-30T09:41:33.728Z,23.00
2018-07-30T09:42:33.756Z,22.78
2018-07-30T09:43:33.761Z,23.18
2018-07-30T09:44:33.813Z,22.60
2018-07-30T09:45:33.802Z,22.50
2018-07-30T09:46:33.818Z,22.42
2018-07-30T09:47:33.851Z,21.83
2018-07-30T09:48:33.873Z,21.73
2018-07-30T09:49:33.881Z,22.42
2018-07-30T09:50:33.918Z,22.69
2018-07-30T09:51:33.924Z,24.14
2018-07-30T09:52:33.943Z,24.24
2018-07-30T09:53:33.975Z,23.85
2018-07-30T09:54:34.031Z,24.04
2018-07-30T09:55:34.013Z,24.81
2018-07-30T09:56:34.034Z,24.69
2018-07-30T09:57:34.065Z,24.62
2018-07-30T09:58:34.074Z,24.61
2018-07-30T09:59:34.094Z,24.99
2018-07-30T10:00:34.121Z,25.08
2018-07-30T10:01:34.937Z,25.18
2018-07-30T10:02:34.175Z,26.07
2018-07-30T10:03:34.210Z,25.97
2018-07-30T10:04:34.228Z,25.39
2018-07-30T10:05:34.405Z,25.20
2018-07-30T10:06:34.288Z,25.02
2018-07-30T10:07:34.323Z,25.29
2018-07-30T10:08:34.289Z,25.31
2018-07-30T10:09:34.322Z,25.02
2018-07-30T10:10:34.327Z,24.35
2018-07-30T10:11:34.354Z,24.63
2018-07-30T10:12:34.376Z,23.94
2018-07-30T10:13:34.387Z,24.14
2018-07-30T10:14:34.408Z,24.72
2018-07-30T10:15:34.424Z,24.91
2018-07-30T10:16:34.444Z,25.38
2018-07-30T10:17:34.537Z,25.29
2018-07-30T10:18:34.488Z,24.92
2018-07-30T10:19:34.508Z,25.31
2018-07-30T10:20:34.528Z,24.62
2018-07-30T10:21:34.543Z,24.62
2018-07-30T10:22:34.563Z,24.33
2018-07-30T10:23:34.632Z,24.33
2018-07-30T10:24:34.607Z,24.71
2018-07-30T10:25:34.649Z,25.09
2018-07-30T10:26:34.642Z,25.98
2018-07-30T10:27:34.661Z,25.76
2018-07-30T10:28:34.683Z,26.38
2018-07-30T10:29:34.707Z,25.21
2018-07-30T10:30:34.736Z,24.93
2018-07-30T10:31:34.740Z,24.74
2018-07-30T10:32:34.766Z,24.73
2018-07-30T10:33:34.774Z,24.05
2018-07-30T10:34:34.868Z,24.07
2018-07-30T10:35:34.844Z,24.08
2018-07-30T10:36:34.834Z,23.79
2018-07-30T10:37:34.863Z,23.90
2018-07-30T10:38:34.877Z,23.30
2018-07-30T10:39:34.904Z,24.08
2018-07-30T10:40:34.922Z,23.90
2018-07-30T10:41:34.943Z,23.80
2018-07-30T10:42:34.965Z,23.70
2018-07-30T10:43:34.980Z,23.70
2018-07-30T10:44:35.010Z,23.37
2018-07-30T10:45:35.056Z,25.23
2018-07-30T10:46:35.049Z,24.93
2018-07-30T10:47:35.065Z,24.95
2018-07-30T10:48:35.091Z,24.25
2018-07-30T10:49:35.117Z,24.65
2018-07-30T10:50:35.149Z,24.55
2018-07-30T10:51:35.184Z,24.73
2018-07-30T10:52:35.229Z,25.21
2018-07-30T10:53:35.289Z,25.40
2018-07-30T10:54:35.261Z,25.59
2018-07-30T10:55:35.322Z,26.46
2018-07-30T10:56:35.412Z,26.09
2018-07-30T10:57:35.397Z,25.31
2018-07-30T10:58:35.396Z,25.21
2018-07-30T10:59:35.414Z,25.32
2018-07-30T11:00:35.435Z,25.32
2018-07-30T11:01:35.418Z,25.23
2018-07-30T11:02:35.422Z,25.04
2018-07-30T11:03:35.436Z,24.66
2018-07-30T11:04:35.465Z,24.76
2018-07-30T11:05:35.472Z,25.14
2018-07-30T11:06:35.473Z,25.81
2018-07-30T11:07:35.486Z,27.76
2018-07-30T11:08:35.524Z,28.34
2018-07-30T11:09:35.549Z,28.34
2018-07-30T11:10:35.543Z,28.34
2018-07-30T11:11:35.576Z,27.73
2018-07-30T11:12:35.596Z,27.83
2018-07-30T11:13:35.605Z,27.83
2018-07-30T11:14:35.634Z,27.73
2018-07-30T11:15:35.645Z,27.75
2018-07-30T11:16:35.669Z,27.15
2018-07-30T11:17:35.697Z,26.97
2018-07-30T11:18:35.721Z,26.98
2018-07-30T11:19:35.735Z,27.08
2018-07-30T11:20:35.741Z,27.39
2018-07-30T11:21:35.770Z,26.70
2018-07-30T11:22:35.776Z,26.01
2018-07-30T11:23:35.809Z,26.50
2018-07-30T11:24:35.829Z,26.50
2018-07-30T11:25:35.858Z,26.90
2018-07-30T11:26:35.872Z,26.78
2018-07-30T11:27:35.893Z,26.97
2018-07-30T11:28:35.906Z,27.25
2018-07-30T11:29:35.929Z,28.05
2018-07-30T11:30:35.933Z,27.94
2018-07-30T11:31:35.962Z,27.45
2018-07-30T11:32:35.977Z,27.06
2018-07-30T11:33:36.031Z,27.35
2018-07-30T11:34:36.019Z,27.55
2018-07-30T11:35:36.037Z,27.56
2018-07-30T11:36:36.061Z,27.17
2018-07-30T11:37:36.072Z,27.26
2018-07-30T11:38:36.094Z,26.89
2018-07-30T11:39:36.153Z,26.89
2018-07-30T11:40:36.133Z,26.67
2018-07-30T11:41:36.153Z,26.96
2018-07-30T11:42:36.174Z,27.65
2018-07-30T11:43:36.223Z,27.55
2018-07-30T11:44:36.214Z,28.34
2018-07-30T11:45:36.255Z,28.91
2018-07-30T11:46:36.253Z,29.20
2018-07-30T11:47:36.271Z,29.30
2018-07-30T11:48:36.324Z,28.80
2018-07-30T11:49:36.307Z,28.61
2018-07-30T11:50:36.379Z,28.11
2018-07-30T11:51:36.343Z,28.80
2018-07-30T11:52:36.395Z,29.09
2018-07-30T11:53:36.398Z,29.30
2018-07-30T11:54:36.411Z,29.28
2018-07-30T11:55:36.431Z,29.00
2018-07-30T11:56:36.447Z,29.39
2018-07-30T11:57:36.455Z,29.10
2018-07-30T11:58:36.477Z,29.11
2018-07-30T11:59:36.489Z,29.00
2018-07-30T12:00:36.511Z,29.48
2018-07-30T12:01:36.534Z,29.27
2018-07-30T12:02:36.556Z,29.94
2018-07-30T12:03:36.573Z,30.15
2018-07-30T12:04:36.581Z,30.34
2018-07-30T12:05:36.603Z,31.31
2018-07-30T12:06:36.618Z,31.41
2018-07-30T12:07:36.628Z,30.91
2018-07-30T12:08:36.653Z,31.31
2018-07-30T12:09:36.675Z,30.62
2018-07-30T12:10:36.680Z,30.62
2018-07-30T12:11:36.730Z,30.82
2018-07-30T12:12:36.733Z,31.11
2018-07-30T12:13:36.786Z,31.41
2018-07-30T12:14:36.771Z,31.49
2018-07-30T12:15:36.767Z,32.18
2018-07-30T12:16:36.800Z,31.79
2018-07-30T12:17:36.799Z,31.59
2018-07-30T12:18:36.827Z,31.98
2018-07-30T12:19:36.842Z,32.20
2018-07-30T12:20:36.848Z,32.10
2018-07-30T12:21:36.899Z,31.60
2018-07-30T12:22:36.914Z,31.70
2018-07-30T12:23:36.946Z,31.23
2018-07-30T12:24:36.922Z,30.83
2018-07-30T12:25:36.922Z,30.93
2018-07-30T12:26:36.947Z,31.42
2018-07-30T12:27:36.964Z,31.21
2018-07-30T12:28:36.981Z,31.70
2018-07-30T12:29:36.997Z,32.29
2018-07-30T12:30:37.999Z,31.41
2018-07-30T12:31:37.041Z,31.41
2018-07-30T12:32:37.075Z,31.21
2018-07-30T12:33:37.052Z,30.54
2018-07-30T12:34:37.099Z,30.32
2018-07-30T12:35:37.096Z,30.90
2018-07-30T12:36:37.149Z,31.28
2018-07-30T12:37:37.122Z,31.97
2018-07-30T12:38:37.179Z,32.26
2018-07-30T12:39:37.136Z,31.79
2018-07-30T12:40:37.173Z,31.79
2018-07-30T12:41:37.208Z,31.49
2018-07-30T12:42:37.220Z,30.91
2018-07-30T12:43:37.200Z,31.29
2018-07-30T12:44:37.229Z,31.20
2018-07-30T12:45:37.233Z,31.29
2018-07-30T12:46:37.280Z,31.69
2018-07-30T12:47:37.289Z,32.18
2018-07-30T12:48:37.278Z,32.56
2018-07-30T12:49:37.301Z,32.18
2018-07-30T12:50:37.381Z,31.98
2018-07-30T12:51:37.330Z,31.98
2018-07-30T12:52:37.344Z,30.91